Beyersville, Texas
Current Conditions -  °F | °C
As of 7:58 AM on Friday 31 Oct 2014 (Local Time) from KGRK Reporting Station
Clear Clear  
Wind Chill: 53°   Ceiling: Unl
Heat Index: 53°   Visibility: 10mi
Dew Point: 47°   Wind: 12mph
Humidity: 82%   Direction: 340°NNW
Pressure: 30.26"   Gusts: NA
Location:  30.5365°N, 97.3104°W
Report Text: KGRK 311258Z AUTO 34010KT 10SM CLR 12/09 A3026 RMK AO2 SLP243 T01150086
Loading
Personal Weather Stations






























Interactive Weather Map
Tropical Storm Tracking
New forecast layout! Learn more

10-Day Weather Forecast

Advertisements
Track Severe Weather on mobile